Time;durP1;ratioP1;P1;durP2;ratioP2;P2;SDS_P1;SDS_P2;PMS_P1;PMS_P2;Temp;Humidity;BMP_temperature;BMP_pressure;BME280_temperature;BME280_humidity;BME280_pressure;Samples;Min_cycle;Max_cycle;Signal;HPM_P1;HPM_P2
2022/12/06 00:01:49;;;;;;;;;;;;;;;3.32;69.00;99820.69;5004282;28;19914;-76
2022/12/06 00:04:15;;;;;;;;;;;;;;;3.53;68.40;99831.94;5002912;28;19931;-75
2022/12/06 00:06:46;;;;;;;;;;;;;;;3.40;70.00;99819.91;5003112;28;19925;-76
2022/12/06 00:09:25;;;;;;;;;;;;;;;3.20;71.54;99810.41;5002564;28;19991;-75
2022/12/06 00:11:51;;;;;;;;;;;;;;;3.07;70.80;99795.84;5003099;28;19945;-75
2022/12/06 00:14:16;;;;;;;;;;;;;;;3.05;68.98;99808.53;5003059;28;19921;-75
2022/12/06 00:16:42;;;;;;;;;;;;;;;3.22;67.37;99818.91;5003024;28;19924;-75
2022/12/06 00:19:08;;;;;;;;;;;;;;;3.22;67.48;99823.16;5003954;28;19914;-75
2022/12/06 00:21:34;;;;;;;;;;;;;;;2.60;68.50;99807.16;5002787;28;19961;-75
2022/12/06 00:24:00;;;;;;;;;;;;;;;2.98;62.48;99834.75;5003811;28;19956;-75
2022/12/06 00:26:26;;;;;;;;;;;;;;;3.45;60.57;99864.13;5002722;28;20248;-75
2022/12/06 00:28:52;;;;;;;;;;;;;;;3.52;61.71;99868.44;5002737;28;20012;-76
2022/12/06 00:31:18;;;;;;;;;;;;;;;3.30;63.79;99854.63;5002821;28;20506;-76
2022/12/06 00:33:43;;;;;;;;;;;;;;;3.32;63.98;99851.25;5002984;28;19921;-76
2022/12/06 00:36:21;;;;;;;;;;;;;;;3.14;65.32;99845.97;5002634;28;20284;-75
2022/12/06 00:38:47;;;;;;;;;;;;;;;2.99;63.95;99841.56;5002404;28;19918;-76
2022/12/06 00:41:13;;;;;;;;;;;;;;;2.76;62.21;99848.91;5002796;28;20901;-75
2022/12/06 00:43:38;;;;;;;;;;;;;;;3.01;58.15;99869.53;5002684;28;20036;-75
2022/12/06 00:46:04;;;;;;;;;;;;;;;2.68;59.51;99871.66;4992139;28;20036;-76
2022/12/06 00:48:29;;;;;;;;;;;;;;;2.68;57.59;99893.72;5002184;28;20463;-75
2022/12/06 00:50:55;;;;;;;;;;;;;;;2.61;57.96;99902.94;5003899;28;19914;-75
2022/12/06 00:53:20;;;;;;;;;;;;;;;2.63;58.55;99916.53;5002757;28;19964;-75
2022/12/06 00:55:45;;;;;;;;;;;;;;;2.68;60.23;99932.69;4994050;28;19937;-75
2022/12/06 00:58:11;;;;;;;;;;;;;;;3.05;59.66;99963.75;5002247;28;19917;-76
2022/12/06 01:00:36;;;;;;;;;;;;;;;3.08;60.73;99973.13;5002642;28;20619;-75
2022/12/06 01:03:01;;;;;;;;;;;;;;;2.80;61.92;99957.47;5002664;28;19972;-76
2022/12/06 01:05:27;;;;;;;;;;;;;;;3.04;61.60;99979.03;5003668;28;19923;-75
2022/12/06 01:07:52;;;;;;;;;;;;;;;2.73;63.25;99965.84;5005392;28;19924;-75
2022/12/06 01:10:17;;;;;;;;;;;;;;;2.70;62.79;99970.88;5006111;28;20371;-75
2022/12/06 01:12:43;;;;;;;;;;;;;;;2.69;63.07;99980.22;5007558;28;20446;-75
2022/12/06 01:15:08;;;;;;;;;;;;;;;2.86;63.75;99998.25;5006090;28;20415;-75
2022/12/06 01:17:33;;;;;;;;;;;;;;;2.72;64.78;99994.66;5007423;28;19913;-75
2022/12/06 01:19:59;;;;;;;;;;;;;;;2.65;65.36;100003.03;5005065;28;19929;-76
2022/12/06 01:22:24;;;;;;;;;;;;;;;2.68;65.98;100001.38;5005540;28;19921;-75
2022/12/06 01:24:49;;;;;;;;;;;;;;;2.70;66.52;100011.59;5007470;28;19939;-75
2022/12/06 01:27:14;;;;;;;;;;;;;;;2.82;67.12;100027.03;5007038;28;19917;-76
2022/12/06 01:29:40;;;;;;;;;;;;;;;2.58;69.39;100016.44;5005268;28;19921;-75
2022/12/06 01:32:05;;;;;;;;;;;;;;;2.60;69.25;100024.97;5006634;28;19972;-75
2022/12/06 01:34:30;;;;;;;;;;;;;;;2.65;69.99;100036.09;5007419;28;20467;-75
2022/12/06 01:36:55;;;;;;;;;;;;;;;2.59;70.72;100034.28;5006754;28;20428;-75
2022/12/06 01:39:20;;;;;;;;;;;;;;;2.22;72.06;100032.78;5006556;28;19917;-75
2022/12/06 01:41:46;;;;;;;;;;;;;;;2.36;72.41;100050.84;5005663;28;19932;-75
2022/12/06 01:44:30;;;;;;;;;;;;;;;2.41;73.13;100062.78;5006897;28;19917;-75
2022/12/06 01:46:55;;;;;;;;;;;;;;;1.99;75.70;100053.53;5006855;28;19948;-75
2022/12/06 01:49:21;;;;;;;;;;;;;;;2.02;76.84;100067.97;5006772;28;19921;-75
2022/12/06 01:51:53;;;;;;;;;;;;;;;1.81;77.86;100074.34;5005353;28;19941;-75
2022/12/06 01:54:19;;;;;;;;;;;;;;;1.79;77.49;100098.84;5005131;28;19921;-75
2022/12/06 01:56:44;;;;;;;;;;;;;;;1.82;78.13;100118.38;5005135;28;20303;-75
2022/12/06 01:59:09;;;;;;;;;;;;;;;1.87;79.01;100137.97;5005008;28;20296;-75
2022/12/06 02:01:35;;;;;;;;;;;;;;;1.90;79.96;100156.66;5005567;28;20512;-75
2022/12/06 02:04:00;;;;;;;;;;;;;;;1.74;81.22;100158.00;5005240;28;20512;-75
2022/12/06 02:06:27;;;;;;;;;;;;;;;1.93;82.16;100185.50;5005950;28;20431;-75
2022/12/06 02:08:52;;;;;;;;;;;;;;;1.82;83.50;100192.88;5006125;28;20016;-75
2022/12/06 02:11:17;;;;;;;;;;;;;;;2.00;84.17;100214.44;5005082;28;20008;-75
2022/12/06 02:13:43;;;;;;;;;;;;;;;1.95;85.66;100216.03;4992130;28;19917;-75
2022/12/06 02:16:11;;;;;;;;;;;;;;;1.93;86.82;100231.22;5006286;28;19961;-75
2022/12/06 02:18:42;;;;;;;;;;;;;;;1.89;87.79;100239.59;5004554;28;20407;-75
2022/12/06 02:21:07;;;;;;;;;;;;;;;1.97;88.35;100248.25;5006295;28;20004;-75
2022/12/06 02:23:35;;;;;;;;;;;;;;;2.06;89.55;100265.41;5005827;28;20016;-75
2022/12/06 02:26:00;;;;;;;;;;;;;;;2.14;90.16;100278.28;5005917;28;19918;-75
2022/12/06 02:28:44;;;;;;;;;;;;;;;1.92;91.19;100265.09;5005414;28;19928;-75
2022/12/06 02:31:14;;;;;;;;;;;;;;;2.02;91.57;100279.72;5004587;28;21193;-75
2022/12/06 02:33:58;;;;;;;;;;;;;;;1.96;92.31;100281.25;5004956;28;19917;-75
2022/12/06 02:36:28;;;;;;;;;;;;;;;1.77;93.11;100277.41;5005632;28;19952;-75
2022/12/06 02:38:55;;;;;;;;;;;;;;;2.06;93.57;100304.38;4988063;28;19929;-75
2022/12/06 02:41:37;;;;;;;;;;;;;;;2.03;93.72;100311.94;5004520;28;19918;-75
2022/12/06 02:44:04;;;;;;;;;;;;;;;1.83;94.49;100308.91;5004618;28;19919;-75
2022/12/06 02:46:30;;;;;;;;;;;;;;;1.94;95.12;100321.00;5004074;28;20265;-75
2022/12/06 02:48:57;;;;;;;;;;;;;;;2.04;95.37;100333.97;5004113;28;20798;-75
2022/12/06 02:51:22;;;;;;;;;;;;;;;1.92;96.32;100333.69;5004093;28;19924;-75
2022/12/06 02:53:48;;;;;;;;;;;;;;;1.84;96.56;100330.06;5004327;28;20419;-75
2022/12/06 02:56:14;;;;;;;;;;;;;;;2.12;96.77;100351.06;5003854;28;19917;-75
2022/12/06 02:58:39;;;;;;;;;;;;;;;1.95;97.34;100346.44;5003863;28;19922;-75
2022/12/06 03:01:20;;;;;;;;;;;;;;;2.05;97.16;100350.06;5005661;28;19917;-75
2022/12/06 03:03:54;;;;;;;;;;;;;;;2.49;96.71;100374.00;5004370;28;19975;-75
2022/12/06 03:06:28;;;;;;;;;;;;;;;2.07;97.21;100349.28;5005401;28;19913;-75
2022/12/06 03:08:54;;;;;;;;;;;;;;;2.30;97.34;100364.22;5004544;28;20288;-75
2022/12/06 03:11:19;;;;;;;;;;;;;;;2.43;96.42;100363.66;5005330;28;19972;-75
2022/12/06 03:13:51;;;;;;;;;;;;;;;2.30;96.44;100351.50;5005373;28;19968;-75
2022/12/06 03:16:18;;;;;;;;;;;;;;;2.47;96.23;100354.44;5003762;28;19933;-76
2022/12/06 03:18:47;;;;;;;;;;;;;;;2.29;95.98;100337.09;5003055;28;19918;-75
2022/12/06 03:21:14;;;;;;;;;;;;;;;2.34;95.66;100335.50;5004688;28;19924;-75
2022/12/06 03:23:41;;;;;;;;;;;;;;;2.38;95.20;100333.91;5004082;28;19979;-76
2022/12/06 03:26:06;;;;;;;;;;;;;;;2.20;95.05;100319.09;5003040;28;20434;-75
2022/12/06 03:28:31;;;;;;;;;;;;;;;2.14;95.57;100324.00;5003018;28;19914;-75
2022/12/06 03:30:58;;;;;;;;;;;;;;;2.19;95.39;100319.88;5002449;28;20342;-75
2022/12/06 03:33:24;;;;;;;;;;;;;;;2.13;95.53;100317.22;5002257;28;20051;-75
2022/12/06 03:35:49;;;;;;;;;;;;;;;2.22;95.77;100327.59;5002176;28;20004;-75
2022/12/06 03:38:20;;;;;;;;;;;;;;;2.14;95.80;100317.25;5001366;28;19918;-75
2022/12/06 03:40:46;;;;;;;;;;;;;;;2.14;96.05;100318.94;5001955;28;20384;-75
2022/12/06 03:43:11;;;;;;;;;;;;;;;2.05;96.40;100310.28;5001801;28;19964;-75
2022/12/06 03:45:38;;;;;;;;;;;;;;;2.01;96.95;100312.72;5003553;28;19913;-75
2022/12/06 03:48:06;;;;;;;;;;;;;;;1.97;97.48;100319.41;5001657;28;19918;-75
2022/12/06 03:50:32;;;;;;;;;;;;;;;1.87;97.87;100309.81;5001319;28;19975;-75
2022/12/06 03:52:58;;;;;;;;;;;;;;;1.90;98.36;100315.00;5001771;28;19925;-75
2022/12/06 03:55:23;;;;;;;;;;;;;;;2.09;98.53;100334.06;5003729;28;20296;-75
2022/12/06 03:57:49;;;;;;;;;;;;;;;2.05;98.67;100334.81;5003520;28;19913;-75
2022/12/06 04:00:15;;;;;;;;;;;;;;;2.23;98.41;100355.56;5002887;28;19917;-75
2022/12/06 04:02:40;;;;;;;;;;;;;;;2.17;98.07;100346.97;5001611;28;19917;-75
2022/12/06 04:05:06;;;;;;;;;;;;;;;2.15;98.07;100341.00;5001994;28;20319;-75
2022/12/06 04:07:31;;;;;;;;;;;;;;;2.15;98.10;100346.06;5003208;28;20368;-75
2022/12/06 04:10:01;;;;;;;;;;;;;;;2.22;98.27;100343.69;5002704;28;19925;-75
2022/12/06 04:15:34;;;;;;;;;;;;;;;2.44;97.77;100350.16;4968847;28;20419;-75
2022/12/06 04:18:12;;;;;;;;;;;;;;;2.32;97.51;100338.84;4964472;28;20019;-75
2022/12/06 04:23:39;;;;;;;;;;;;;;;2.32;96.98;100333.75;4979256;28;19917;-75
2022/12/06 04:26:05;;;;;;;;;;;;;;;2.48;96.74;100344.28;5003074;28;19952;-75
2022/12/06 04:39:26;;;;;;;;;;;;;;;2.32;95.54;100306.63;5001339;28;19924;-75
2022/12/06 04:44:36;;;;;;;;;;;;;;;2.22;95.53;100292.03;5005719;28;19940;-75
2022/12/06 04:47:01;;;;;;;;;;;;;;;2.41;95.42;100304.28;5005543;28;19925;-75
2022/12/06 04:49:26;;;;;;;;;;;;;;;2.63;95.00;100312.41;5004755;28;19924;-75
2022/12/06 04:51:52;;;;;;;;;;;;;;;2.47;94.86;100299.34;5006165;28;19925;-75
2022/12/06 04:54:17;;;;;;;;;;;;;;;2.55;94.38;100299.50;5005259;28;20435;-75
2022/12/06 04:56:42;;;;;;;;;;;;;;;2.58;94.04;100291.09;5006671;28;20024;-75
2022/12/06 04:59:08;;;;;;;;;;;;;;;2.91;93.49;100318.91;5004705;28;19955;-75
2022/12/06 05:01:33;;;;;;;;;;;;;;;3.17;92.04;100324.53;5004930;28;20315;-75
2022/12/06 05:03:58;;;;;;;;;;;;;;;3.19;90.33;100297.38;5006242;28;20534;-75
2022/12/06 05:06:23;;;;;;;;;;;;;;;2.97;89.33;100274.94;5006516;28;20372;-75
2022/12/06 05:08:49;;;;;;;;;;;;;;;3.06;88.14;100259.84;5006349;28;19914;-75
2022/12/06 05:11:14;;;;;;;;;;;;;;;3.31;87.01;100253.50;5006034;28;19947;-75
2022/12/06 05:13:39;;;;;;;;;;;;;;;3.42;85.17;100235.84;5004753;28;19925;-75
2022/12/06 05:16:05;;;;;;;;;;;;;;;3.30;84.37;100205.94;5006402;28;19925;-75
2022/12/06 05:18:30;;;;;;;;;;;;;;;3.29;82.33;100188.97;5004344;28;19913;-75
2022/12/06 05:21:06;;;;;;;;;;;;;;;3.53;79.73;100175.75;5006048;28;19922;-75
2022/12/06 05:23:32;;;;;;;;;;;;;;;3.64;77.48;100158.09;5003966;28;19975;-75
2022/12/06 05:26:00;;;;;;;;;;;;;;;3.44;75.99;100125.53;5005945;28;19925;-75
2022/12/06 05:28:26;;;;;;;;;;;;;;;3.54;74.42;100101.09;5003927;28;20055;-75
2022/12/06 05:30:51;;;;;;;;;;;;;;;3.66;72.56;100087.66;5005899;28;20000;-75
2022/12/06 05:33:16;;;;;;;;;;;;;;;3.45;72.11;100065.28;5005503;28;20315;-75
2022/12/06 05:35:41;;;;;;;;;;;;;;;2.90;72.76;100022.06;5004459;28;19921;-75
2022/12/06 05:38:06;;;;;;;;;;;;;;;3.16;70.51;100037.72;5005289;28;19921;-76
2022/12/06 05:40:32;;;;;;;;;;;;;;;3.15;70.05;100036.03;5005422;28;19921;-75
2022/12/06 05:42:57;;;;;;;;;;;;;;;3.57;68.02;100068.00;5005544;28;19926;-75
2022/12/06 05:45:22;;;;;;;;;;;;;;;3.61;66.96;100051.94;5003779;28;20265;-75
2022/12/06 05:47:47;;;;;;;;;;;;;;;3.55;66.05;100026.38;5005586;28;20550;-75
2022/12/06 05:50:13;;;;;;;;;;;;;;;3.25;65.88;100007.31;5003990;28;19917;-75
2022/12/06 05:52:38;;;;;;;;;;;;;;;3.44;63.33;100007.56;5003946;28;19961;-75
2022/12/06 05:55:03;;;;;;;;;;;;;;;3.60;61.48;100011.16;5005055;28;20045;-75
2022/12/06 05:57:29;;;;;;;;;;;;;;;3.43;60.68;99995.66;5005064;28;19979;-75
2022/12/06 05:59:54;;;;;;;;;;;;;;;3.36;59.96;99984.53;5003772;28;20372;-74
2022/12/06 06:02:19;;;;;;;;;;;;;;;3.48;58.49;99981.28;5005049;28;20281;-75
2022/12/06 06:04:44;;;;;;;;;;;;;;;3.65;57.07;99982.38;5005539;28;20595;-75
2022/12/06 06:07:09;;;;;;;;;;;;;;;3.55;57.32;99967.78;5006178;28;19925;-74
2022/12/06 06:09:35;;;;;;;;;;;;;;;3.47;56.93;99956.69;5003853;28;19943;-75
2022/12/06 06:12:00;;;;;;;;;;;;;;;3.61;55.74;99954.28;5003503;28;19972;-75
2022/12/06 06:14:25;;;;;;;;;;;;;;;3.39;56.98;99946.38;5003489;28;19926;-75
2022/12/06 06:16:51;;;;;;;;;;;;;;;3.48;55.67;99943.94;5005375;28;19914;-75
2022/12/06 06:19:16;;;;;;;;;;;;;;;3.49;55.54;99934.59;5004879;28;19921;-75
2022/12/06 06:21:41;;;;;;;;;;;;;;;3.74;54.37;99949.34;5004835;28;20557;-75
2022/12/06 06:24:07;;;;;;;;;;;;;;;3.59;55.72;99941.53;5004277;28;19928;-75
2022/12/06 06:26:32;;;;;;;;;;;;;;;3.84;54.62;99936.72;5004479;28;19928;-75
2022/12/06 06:28:57;;;;;;;;;;;;;;;3.61;56.25;99919.47;5004815;28;19924;-75
2022/12/06 06:31:22;;;;;;;;;;;;;;;3.33;57.01;99903.91;5003039;28;19922;-75
2022/12/06 06:33:47;;;;;;;;;;;;;;;3.29;56.24;99909.78;5003206;28;19927;-75
2022/12/06 06:36:13;;;;;;;;;;;;;;;3.22;55.27;99915.63;5003545;28;19996;-75
2022/12/06 06:38:38;;;;;;;;;;;;;;;3.17;54.60;99921.50;5004560;28;19918;-75
2022/12/06 06:41:04;;;;;;;;;;;;;;;3.13;53.66;99940.97;5003058;28;20000;-75
2022/12/06 06:43:29;;;;;;;;;;;;;;;3.13;52.97;99951.16;5004532;28;19924;-75
2022/12/06 06:45:55;;;;;;;;;;;;;;;3.19;52.58;99969.03;5003123;28;20349;-75
2022/12/06 06:48:21;;;;;;;;;;;;;;;3.26;52.57;99973.41;5003396;28;19917;-75
2022/12/06 06:50:46;;;;;;;;;;;;;;;3.14;53.59;99983.41;5004252;28;19920;-76
2022/12/06 06:53:11;;;;;;;;;;;;;;;3.19;53.52;99991.09;5004588;28;19922;-76
2022/12/06 06:55:37;;;;;;;;;;;;;;;3.05;54.20;100001.06;5005525;28;19913;-76
2022/12/06 06:58:02;;;;;;;;;;;;;;;3.17;54.83;100014.00;5003703;28;19971;-75
2022/12/06 07:00:27;;;;;;;;;;;;;;;2.98;57.01;100017.09;5003504;28;19917;-76
2022/12/06 07:02:53;;;;;;;;;;;;;;;3.00;58.43;100039.19;5003686;28;20023;-76
2022/12/06 07:05:18;;;;;;;;;;;;;;;2.97;60.09;100051.03;5004192;28;19965;-75
2022/12/06 07:07:45;;;;;;;;;;;;;;;2.98;62.02;100073.06;5004043;28;20031;-75
2022/12/06 07:10:10;;;;;;;;;;;;;;;2.96;63.79;100079.81;5003276;28;20281;-75
2022/12/06 07:12:36;;;;;;;;;;;;;;;3.10;65.43;100099.59;5004135;28;20009;-75
2022/12/06 07:15:01;;;;;;;;;;;;;;;3.14;66.08;100111.50;5002509;28;19918;-75
2022/12/06 07:17:26;;;;;;;;;;;;;;;3.03;67.77;100113.00;5001699;28;19921;-75
2022/12/06 07:19:51;;;;;;;;;;;;;;;3.14;67.84;100123.38;5003305;28;19921;-76
2022/12/06 07:22:16;;;;;;;;;;;;;;;3.01;69.21;100131.63;5002091;28;19939;-75
2022/12/06 07:24:42;;;;;;;;;;;;;;;3.01;70.26;100134.19;5003730;28;20461;-75
2022/12/06 07:27:07;;;;;;;;;;;;;;;3.17;70.72;100154.00;5001442;28;19918;-74
2022/12/06 07:29:32;;;;;;;;;;;;;;;3.12;71.58;100155.56;5003333;28;19921;-75
2022/12/06 07:31:58;;;;;;;;;;;;;;;3.31;71.61;100175.44;5002592;28;19923;-74
2022/12/06 07:34:23;;;;;;;;;;;;;;;3.37;71.11;100184.84;5003713;28;20012;-74
2022/12/06 07:36:48;;;;;;;;;;;;;;;3.48;70.48;100174.84;5003389;28;19921;-75
2022/12/06 07:39:13;;;;;;;;;;;;;;;3.54;69.86;100174.94;5002877;28;19924;-75
2022/12/06 07:47:06;;;;;;;;;;;;;;;3.07;69.37;100126.66;5003696;28;20466;-74
2022/12/06 07:49:32;;;;;;;;;;;;;;;3.11;70.71;100128.44;4999720;28;19971;-74
2022/12/06 07:51:57;;;;;;;;;;;;;;;2.98;72.01;100144.31;5000448;28;19952;-74
2022/12/06 07:54:22;;;;;;;;;;;;;;;3.07;73.55;100164.84;5001645;28;19921;-74
2022/12/06 07:56:48;;;;;;;;;;;;;;;3.20;75.12;100183.72;5001832;28;19976;-74
2022/12/06 07:59:13;;;;;;;;;;;;;;;3.33;76.26;100208.53;5001240;28;19917;-74
2022/12/06 08:01:38;;;;;;;;;;;;;;;3.06;77.41;100204.69;5003105;28;20372;-74
2022/12/06 08:04:04;;;;;;;;;;;;;;;3.13;78.33;100215.84;5002074;28;20287;-74
2022/12/06 08:06:29;;;;;;;;;;;;;;;3.26;78.86;100245.78;5003244;28;19917;-74
2022/12/06 08:08:54;;;;;;;;;;;;;;;3.42;78.30;100256.22;5001820;28;19921;-74
2022/12/06 08:11:21;;;;;;;;;;;;;;;3.49;78.03;100273.31;5002067;28;19929;-74
2022/12/06 08:13:46;;;;;;;;;;;;;;;3.59;78.54;100277.75;5002237;28;19917;-74
2022/12/06 08:16:12;;;;;;;;;;;;;;;3.58;77.62;100278.59;5002119;28;19921;-74
2022/12/06 08:18:37;;;;;;;;;;;;;;;3.68;77.40;100277.91;5003443;28;19937;-74
2022/12/06 08:21:02;;;;;;;;;;;;;;;3.77;76.78;100288.22;5002953;28;19918;-74
2022/12/06 08:23:28;;;;;;;;;;;;;;;3.94;75.92;100290.19;5003987;28;19918;-74
2022/12/06 08:25:59;;;;;;;;;;;;;;;3.80;74.56;100273.84;5002970;28;19924;-74
2022/12/06 08:28:24;;;;;;;;;;;;;;;3.90;74.33;100261.28;5002093;28;19923;-74
2022/12/06 08:30:50;;;;;;;;;;;;;;;4.06;72.86;100267.44;4986588;28;19917;-74
2022/12/06 08:33:15;;;;;;;;;;;;;;;4.21;71.16;100265.94;5005341;28;19951;-74
2022/12/06 08:35:40;;;;;;;;;;;;;;;4.13;68.70;100248.84;5005827;28;19949;-75
2022/12/06 08:38:05;;;;;;;;;;;;;;;4.03;67.89;100231.69;5004683;28;19941;-74
2022/12/06 08:40:31;;;;;;;;;;;;;;;3.96;66.04;100217.16;5005737;28;19918;-75
2022/12/06 08:42:56;;;;;;;;;;;;;;;3.80;66.30;100197.38;5004070;28;19966;-74
2022/12/06 08:45:21;;;;;;;;;;;;;;;3.67;67.08;100189.56;5003366;28;19971;-74
2022/12/06 08:47:46;;;;;;;;;;;;;;;3.66;67.74;100192.09;5005012;28;19944;-74
2022/12/06 08:50:11;;;;;;;;;;;;;;;3.69;68.66;100203.16;5004523;28;19921;-74
2022/12/06 08:52:37;;;;;;;;;;;;;;;3.69;69.05;100207.41;5004397;28;19917;-74
2022/12/06 08:55:02;;;;;;;;;;;;;;;3.70;69.94;100220.19;5004930;28;19917;-75
2022/12/06 08:57:27;;;;;;;;;;;;;;;3.71;70.98;100223.59;5004784;28;20005;-75
2022/12/06 08:59:52;;;;;;;;;;;;;;;3.74;71.65;100232.16;5004485;28;20012;-74
2022/12/06 09:02:18;;;;;;;;;;;;;;;3.74;72.26;100228.72;5004310;28;19961;-74
2022/12/06 09:04:43;;;;;;;;;;;;;;;3.76;72.73;100245.75;5004445;28;19924;-74
2022/12/06 09:07:08;;;;;;;;;;;;;;;3.71;73.24;100239.72;5004389;28;20044;-74
2022/12/06 09:09:33;;;;;;;;;;;;;;;3.77;73.68;100251.72;5003517;28;19929;-74
2022/12/06 09:11:59;;;;;;;;;;;;;;;3.82;73.61;100254.34;5004535;28;19922;-74
2022/12/06 09:14:24;;;;;;;;;;;;;;;3.79;74.57;100250.06;5004483;28;20323;-75
2022/12/06 09:16:49;;;;;;;;;;;;;;;3.69;74.72;100261.75;5003753;28;19913;-75
2022/12/06 09:19:14;;;;;;;;;;;;;;;3.68;76.44;100267.72;5002806;28;19952;-74
2022/12/06 09:21:41;;;;;;;;;;;;;;;3.52;77.52;100265.75;5003057;28;19949;-74
2022/12/06 09:24:11;;;;;;;;;;;;;;;3.63;78.12;100284.59;5004128;28;20004;-75
2022/12/06 09:26:36;;;;;;;;;;;;;;;3.73;78.61;100299.19;5002436;28;20476;-75
2022/12/06 09:29:01;;;;;;;;;;;;;;;3.64;79.75;100301.59;5006795;28;19914;-75
2022/12/06 09:31:27;;;;;;;;;;;;;;;3.68;80.00;100316.09;5007200;28;19921;-75
2022/12/06 09:33:52;;;;;;;;;;;;;;;3.62;80.96;100321.09;5007071;28;19976;-75
2022/12/06 09:36:19;;;;;;;;;;;;;;;3.61;81.61;100332.13;5007354;28;19967;-75
2022/12/06 09:38:44;;;;;;;;;;;;;;;3.66;82.22;100344.94;5005661;28;19918;-75
2022/12/06 09:41:28;;;;;;;;;;;;;;;3.39;83.60;100340.19;5005763;28;20312;-75
2022/12/06 09:44:12;;;;;;;;;;;;;;;3.45;84.11;100365.78;5007014;28;19967;-75
2022/12/06 09:46:43;;;;;;;;;;;;;;;3.21;85.81;100356.84;5006903;28;20343;-75
2022/12/06 09:49:08;;;;;;;;;;;;;;;3.31;87.20;100381.66;5006739;28;19913;-74
2022/12/06 09:51:33;;;;;;;;;;;;;;;3.59;87.70;100417.84;5006801;28;20225;-74
2022/12/06 09:53:59;;;;;;;;;;;;;;;3.53;88.26;100415.16;5006640;28;19917;-75
2022/12/06 09:56:25;;;;;;;;;;;;;;;3.64;89.36;100434.06;5006745;28;20371;-74
2022/12/06 09:58:56;;;;;;;;;;;;;;;3.66;89.25;100437.50;5005377;28;19917;-74
2022/12/06 10:01:28;;;;;;;;;;;;;;;3.65;89.71;100433.25;5006467;28;20007;-74
2022/12/06 10:03:58;;;;;;;;;;;;;;;3.75;89.64;100449.56;5005308;28;19917;-74
2022/12/06 10:06:24;;;;;;;;;;;;;;;3.61;91.02;100444.22;5005524;28;19913;-75
2022/12/06 10:08:52;;;;;;;;;;;;;;;3.44;91.27;100436.22;5004893;28;19936;-75
2022/12/06 10:11:24;;;;;;;;;;;;;;;3.64;91.88;100464.63;5006615;28;19933;-74
2022/12/06 10:14:08;;;;;;;;;;;;;;;3.62;92.92;100461.19;5005411;28;19921;-75
2022/12/06 10:16:52;;;;;;;;;;;;;;;3.75;92.96;100473.34;5007105;28;19919;-74
2022/12/06 10:19:23;;;;;;;;;;;;;;;3.62;93.13;100455.25;5006722;28;20319;-75
2022/12/06 10:21:51;;;;;;;;;;;;;;;3.81;nan;100471.75;5006422;28;19917;-75
2022/12/06 10:24:22;;;;;;;;;;;;;;;3.96;93.21;100482.22;5006781;28;20442;-74
2022/12/06 10:26:51;;;;;;;;;;;;;;;3.54;93.94;100447.47;5006495;28;19918;-75
2022/12/06 10:29:21;;;;;;;;;;;;;;;3.54;95.03;100447.47;5005022;28;19957;-75
2022/12/06 10:31:59;;;;;;;;;;;;;;;3.59;96.24;100458.59;5004978;28;20048;-75
2022/12/06 10:34:30;;;;;;;;;;;;;;;3.62;96.78;100466.28;5005229;28;19919;-75
2022/12/06 10:36:58;;;;;;;;;;;;;;;3.75;97.32;100483.53;5006108;28;19923;-75
2022/12/06 10:39:28;;;;;;;;;;;;;;;3.89;96.75;100496.53;5005726;28;19940;-75
2022/12/06 10:42:32;;;;;;;;;;;;;;;3.97;96.56;100494.16;5004835;28;19917;-75
2022/12/06 10:44:59;;;;;;;;;;;;;;;3.85;95.36;100478.63;4983739;28;19917;-74
2022/12/06 10:47:26;;;;;;;;;;;;;;;3.89;96.00;100472.75;4967589;28;20030;-75
2022/12/06 10:49:51;;;;;;;;;;;;;;;3.82;95.48;100458.19;4983258;28;19920;-75
2022/12/06 10:52:25;;;;;;;;;;;;;;;3.93;95.44;100464.34;5006165;28;20331;-74
2022/12/06 10:55:16;;;;;;;;;;;;;;;4.08;95.86;100469.72;5005731;28;20391;-74
2022/12/06 10:57:41;;;;;;;;;;;;;;;4.03;94.79;100471.31;5002671;28;20399;-74
2022/12/06 11:00:13;;;;;;;;;;;;;;;4.05;94.81;100466.25;5005555;28;19917;-75
2022/12/06 11:02:48;;;;;;;;;;;;;;;4.19;95.11;100468.19;5005491;28;19921;-75
2022/12/06 11:05:16;;;;;;;;;;;;;;;4.22;94.28;100458.88;5006311;28;19929;-75
2022/12/06 11:07:42;;;;;;;;;;;;;;;4.34;93.18;100464.22;5005155;28;19920;-75
2022/12/06 11:10:22;;;;;;;;;;;;;;;4.28;92.66;100448.81;5004466;28;19956;-75
2022/12/06 11:12:47;;;;;;;;;;;;;;;3.93;92.04;100415.91;5004982;28;19959;-74
2022/12/06 11:15:13;;;;;;;;;;;;;;;4.18;91.79;100422.28;5004611;28;19914;-74
2022/12/06 11:17:38;;;;;;;;;;;;;;;3.91;92.30;100397.19;5006271;28;20008;-75
2022/12/06 11:20:36;;;;;;;;;;;;;;;4.15;91.94;100407.81;5004161;28;19913;-75
2022/12/06 11:23:07;;;;;;;;;;;;;;;4.24;91.53;100412.19;4993003;28;19943;-74
2022/12/06 11:25:35;;;;;;;;;;;;;;;4.21;89.96;100407.03;5005936;28;19914;-75
2022/12/06 11:28:20;;;;;;;;;;;;;;;4.49;90.13;100413.41;5003885;28;19918;-75
2022/12/06 11:30:45;;;;;;;;;;;;;;;4.24;89.31;100390.94;5005435;28;20372;-74
2022/12/06 11:33:11;;;;;;;;;;;;;;;3.93;88.67;100355.59;5004641;28;19971;-75
2022/12/06 11:35:36;;;;;;;;;;;;;;;4.21;89.20;100370.50;5004175;28;20410;-75
2022/12/06 11:38:03;;;;;;;;;;;;;;;4.17;89.47;100369.56;5005199;28;20430;-75
2022/12/06 11:40:35;;;;;;;;;;;;;;;3.96;88.44;100348.00;5003939;28;19920;-75
2022/12/06 11:43:01;;;;;;;;;;;;;;;4.03;88.88;100355.75;5004036;28;19921;-75
2022/12/06 11:45:27;;;;;;;;;;;;;;;4.03;88.53;100346.41;5003867;28;19941;-75
2022/12/06 11:47:53;;;;;;;;;;;;;;;3.84;88.89;100334.22;5004880;28;19924;-75
2022/12/06 11:50:19;;;;;;;;;;;;;;;3.74;90.07;100334.06;5003459;28;19918;-75
2022/12/06 11:52:46;;;;;;;;;;;;;;;3.41;91.86;100319.03;5002586;28;19994;-75
2022/12/06 11:55:21;;;;;;;;;;;;;;;3.60;93.10;100345.66;5004146;28;19917;-75
2022/12/06 11:57:46;;;;;;;;;;;;;;;3.61;94.07;100367.78;5003720;28;19921;-75
2022/12/06 12:00:16;;;;;;;;;;;;;;;3.54;95.11;100371.91;5004844;28;19971;-75
2022/12/06 12:02:42;;;;;;;;;;;;;;;3.59;96.19;100394.91;5004569;28;19951;-75
2022/12/06 12:05:33;;;;;;;;;;;;;;;3.67;96.57;100417.97;5003689;28;19965;-75
2022/12/06 12:08:05;;;;;;;;;;;;;;;3.88;97.75;100432.81;5004775;28;19965;-75
2022/12/06 12:10:41;;;;;;;;;;;;;;;3.89;98.00;100447.28;5003076;28;19917;-75
2022/12/06 12:15:53;;;;;;;;;;;;;;;3.68;98.67;100435.84;5004576;28;19924;-75
2022/12/06 12:18:32;;;;;;;;;;;;;;;3.64;99.97;100439.16;5004499;28;19914;-75
2022/12/06 12:20:57;;;;;;;;;;;;;;;3.53;100.00;100450.81;5003441;28;19917;-75
2022/12/06 12:23:24;;;;;;;;;;;;;;;3.72;100.00;100467.34;5002880;28;19952;-75
2022/12/06 12:25:59;;;;;;;;;;;;;;;3.66;100.00;100473.16;5003140;28;19921;-75
2022/12/06 12:28:25;;;;;;;;;;;;;;;3.93;100.00;100508.53;5003942;28;19925;-75
2022/12/06 12:30:51;;;;;;;;;;;;;;;3.96;100.00;100518.75;5003326;28;19961;-75
2022/12/06 12:33:17;;;;;;;;;;;;;;;3.97;100.00;100519.66;5003159;28;20030;-75
2022/12/06 12:35:47;;;;;;;;;;;;;;;3.93;100.00;100517.88;5003013;28;19913;-74
2022/12/06 12:38:14;;;;;;;;;;;;;;;3.96;100.00;100518.75;5002642;28;20740;-75
2022/12/06 12:40:41;;;;;;;;;;;;;;;3.82;100.00;100519.34;5004740;28;19918;-75
2022/12/06 12:43:10;;;;;;;;;;;;;;;4.15;100.00;100545.50;5002646;28;20352;-75
2022/12/06 12:45:36;;;;;;;;;;;;;;;3.84;100.00;100518.53;5002974;28;19948;-75
2022/12/06 12:48:03;;;;;;;;;;;;;;;3.72;100.00;100519.16;5002782;28;19917;-75
2022/12/06 12:50:29;;;;;;;;;;;;;;;3.68;100.00;100527.56;5002677;28;20467;-75
2022/12/06 12:52:54;;;;;;;;;;;;;;;3.85;100.00;100544.88;5002501;28;19987;-75
2022/12/06 12:55:21;;;;;;;;;;;;;;;4.04;100.00;100561.38;5003069;28;19918;-75
2022/12/06 12:57:50;;;;;;;;;;;;;;;3.97;100.00;100558.72;5002822;28;20386;-75
2022/12/06 13:00:17;;;;;;;;;;;;;;;4.46;100.00;100589.41;5002814;28;20703;-75
2022/12/06 13:02:42;;;;;;;;;;;;;;;4.34;100.00;100573.88;5005423;28;19940;-75
2022/12/06 13:05:15;;;;;;;;;;;;;;;4.55;100.00;100571.69;5006207;28;19917;-75
2022/12/06 13:07:41;;;;;;;;;;;;;;;5.41;100.00;100623.31;5006151;28;19917;-75
2022/12/06 13:10:25;;;;;;;;;;;;;;;5.02;98.38;100564.00;5006208;28;20512;-75
2022/12/06 13:12:55;;;;;;;;;;;;;;;4.84;96.97;100510.09;5007543;28;20334;-75
2022/12/06 13:15:39;;;;;;;;;;;;;;;4.90;94.57;100492.31;5006328;28;19918;-75
2022/12/06 13:18:14;;;;;;;;;;;;;;;4.79;93.07;100453.03;5006269;28;19961;-75